Time;durP1;ratioP1;P1;durP2;ratioP2;P2;SDS_P1;SDS_P2;PMS_P1;PMS_P2;Temp;Humidity;BMP_temperature;BMP_pressure;BME280_temperature;BME280_humidity;BME280_pressure;Samples;Min_cycle;Max_cycle;Signal;HPM_P1;HPM_P2
2022/08/07 00:01:16;;;;;;;7.70;7.00;;;;;;;11.38;89.57;102634.84;5036948;28;20543;-50
2022/08/07 00:04:04;;;;;;;8.23;7.33;;;;;;;11.35;90.01;102640.50;5037116;28;20937;-50
2022/08/07 00:06:33;;;;;;;7.87;7.23;;;;;;;11.31;90.18;102633.78;5036928;28;20436;-52
2022/08/07 00:09:04;;;;;;;8.43;7.73;;;;;;;11.29;90.12;102630.44;5036647;28;20464;-50
2022/08/07 00:11:44;;;;;;;7.90;7.00;;;;;;;11.26;90.04;102626.22;5036500;28;20491;-48
2022/08/07 00:14:22;;;;;;;6.80;6.20;;;;;;;11.25;90.39;102623.72;5036552;28;20502;-48
2022/08/07 00:16:52;;;;;;;8.43;7.50;;;;;;;11.23;90.58;102617.72;5036533;28;20432;-47
2022/08/07 00:19:20;;;;;;;9.43;7.67;;;;;;;11.24;91.34;102622.88;5035704;28;20490;-48
2022/08/07 00:21:49;;;;;;;9.00;8.20;;;;;;;11.23;91.37;102629.19;5036473;28;20514;-48
2022/08/07 00:24:28;;;;;;;8.17;7.60;;;;;;;11.23;91.67;102615.03;5036328;28;20466;-49
2022/08/07 00:26:58;;;;;;;8.77;8.07;;;;;;;11.22;91.79;102610.69;5036543;28;20420;-49
2022/08/07 00:29:35;;;;;;;8.43;7.80;;;;;;;11.22;92.28;102610.69;5036014;28;20463;-46
2022/08/07 00:32:04;;;;;;;9.10;8.20;;;;;;;11.22;92.38;102608.00;5035940;28;20483;-47
2022/08/07 00:34:33;;;;;;;8.50;7.57;;;;;;;11.22;92.60;102610.69;5035588;28;20943;-50
2022/08/07 00:37:03;;;;;;;8.97;8.10;;;;;;;11.22;92.85;102603.50;5035986;28;20432;-49
2022/08/07 00:39:31;;;;;;;8.77;8.03;;;;;;;11.21;93.12;102601.81;5035495;28;20460;-51
2022/08/07 00:42:00;;;;;;;8.63;7.83;;;;;;;11.20;93.29;102608.16;5036123;28;20454;-44
2022/08/07 00:44:29;;;;;;;8.13;7.27;;;;;;;11.17;93.11;102603.13;5036389;28;20440;-48
2022/08/07 00:46:57;;;;;;;12.60;7.90;;;;;;;11.17;93.12;102603.13;5035978;28;20432;-49
2022/08/07 00:49:26;;;;;;;9.00;8.20;;;;;;;11.15;93.35;102605.13;5035241;28;20468;-47
2022/08/07 00:52:16;;;;;;;7.90;7.20;;;;;;;11.12;93.68;102602.75;5036170;28;20472;-49
2022/08/07 00:54:47;;;;;;;8.30;7.60;;;;;;;11.11;94.07;102596.56;5035973;28;20787;-49
2022/08/07 00:57:21;;;;;;;9.57;8.10;;;;;;;11.11;94.22;102601.06;5036091;28;20490;-48
2022/08/07 00:59:49;;;;;;;10.80;7.70;;;;;;;11.09;94.16;102595.91;5035289;28;20444;-50
2022/08/07 01:02:18;;;;;;;8.63;7.93;;;;;;;11.08;94.13;102601.38;5035654;28;20440;-47
2022/08/07 01:04:56;;;;;;;8.23;7.70;;;;;;;11.08;94.21;102598.69;5035685;28;20428;-48
2022/08/07 01:07:28;;;;;;;8.00;7.40;;;;;;;11.05;93.97;102602.53;5034918;28;21024;-47
2022/08/07 01:09:58;;;;;;;8.57;7.87;;;;;;;11.02;93.93;102599.34;5035160;28;20436;-48
2022/08/07 01:12:40;;;;;;;9.40;8.60;;;;;;;11.00;93.88;102591.47;5035008;28;20475;-49
2022/08/07 01:15:21;;;;;;;8.77;7.87;;;;;;;10.99;94.42;102602.34;5035839;28;20423;-47
2022/08/07 01:18:02;;;;;;;10.20;9.37;;;;;;;10.96;94.41;102600.78;5034882;28;20495;-52
2022/08/07 01:20:37;;;;;;;10.37;9.50;;;;;;;10.95;94.61;102601.78;5034861;28;20432;-46
2022/08/07 01:23:12;;;;;;;10.50;9.17;;;;;;;10.93;94.68;102602.94;5034792;28;20454;-48
2022/08/07 01:25:40;;;;;;;9.83;8.90;;;;;;;10.92;94.53;102603.94;5036230;28;20460;-49
2022/08/07 01:28:22;;;;;;;10.03;9.20;;;;;;;10.90;94.91;102601.41;5035125;28;20486;-47
2022/08/07 01:30:52;;;;;;;10.23;9.37;;;;;;;10.89;95.18;102597.06;5035096;28;20516;-49
2022/08/07 01:33:20;;;;;;;10.77;9.67;;;;;;;10.90;95.28;102600.59;5035158;28;20439;-45
2022/08/07 01:35:49;;;;;;;11.73;10.63;;;;;;;10.89;95.29;102594.41;5019797;28;20992;-45
2022/08/07 01:38:24;;;;;;;10.90;9.80;;;;;;;10.88;95.66;102600.72;5034844;28;20484;-46
2022/08/07 01:40:58;;;;;;;10.53;9.53;;;;;;;10.87;95.72;102595.56;5034925;28;20428;-47
2022/08/07 01:43:27;;;;;;;11.20;10.10;;;;;;;10.87;96.12;102593.69;5035298;28;20794;-49
2022/08/07 01:46:05;;;;;;;12.27;10.47;;;;;;;10.87;96.14;102588.34;5050603;23;20509;-41
2022/08/07 01:48:41;;;;;;;9.87;9.03;;;;;;;10.87;96.24;102591.03;5002863;28;20472;-41
2022/08/07 01:51:18;;;;;;;14.97;11.23;;;;;;;10.87;96.26;102587.53;5012652;28;20483;-42
2022/08/07 01:54:10;;;;;;;9.53;8.47;;;;;;;10.84;96.25;102586.00;5012377;28;20441;-41
2022/08/07 01:57:05;;;;;;;9.80;9.00;;;;;;;10.85;96.70;102585.00;5012458;28;20456;-40
2022/08/07 01:59:42;;;;;;;11.70;10.60;;;;;;;10.84;97.07;102585.19;4994052;28;20461;-40
2022/08/07 02:02:17;;;;;;;11.50;10.30;;;;;;;10.83;97.17;102586.16;4992814;28;20426;-45
2022/08/07 02:05:09;;;;;;;10.87;9.77;;;;;;;10.81;97.13;102585.50;4992869;28;20773;-41
2022/08/07 02:07:58;;;;;;;9.97;9.07;;;;;;;10.81;97.61;102577.47;4992087;28;21029;-41
2022/08/07 02:10:28;;;;;;;10.57;9.57;;;;;;;10.82;97.53;102577.31;4992765;28;20441;-43
2022/08/07 02:12:59;;;;;;;15.90;10.77;;;;;;;10.82;97.70;102577.31;4992475;28;20489;-41
2022/08/07 02:15:29;;;;;;;10.60;9.77;;;;;;;10.83;97.57;102586.16;4992686;28;20851;-42
2022/08/07 02:18:02;;;;;;;13.80;10.17;;;;;;;10.83;97.92;102587.00;4992256;28;20549;-41
2022/08/07 02:20:32;;;;;;;10.80;9.70;;;;;;;10.84;98.04;102580.66;4992667;28;20434;-42
2022/08/07 02:23:04;;;;;;;10.87;9.80;;;;;;;10.86;98.13;102580.53;4992526;28;20533;-41
2022/08/07 02:25:37;;;;;;;9.60;8.70;;;;;;;10.89;98.30;102582.88;4992444;28;20434;-44
2022/08/07 02:28:28;;;;;;;10.90;9.23;;;;;;;10.88;98.03;102581.19;4992175;28;20831;-43
2022/08/07 02:30:58;;;;;;;9.27;8.47;;;;;;;10.86;98.50;102581.38;4992587;28;20796;-41
2022/08/07 02:33:34;;;;;;;10.97;10.07;;;;;;;10.86;98.45;102581.38;4993723;28;20425;-42
2022/08/07 02:36:21;;;;;;;9.67;8.83;;;;;;;10.86;98.77;102575.19;5003761;28;20456;-41
2022/08/07 02:38:57;;;;;;;10.70;9.23;;;;;;;10.87;98.90;102574.19;5011553;28;20514;-41
2022/08/07 02:41:27;;;;;;;11.40;10.30;;;;;;;10.87;98.93;102571.53;5012023;28;20440;-43
2022/08/07 02:44:04;;;;;;;9.30;8.60;;;;;;;10.86;98.90;102569.84;5011763;28;20429;-40
2022/08/07 02:46:34;;;;;;;10.30;9.30;;;;;;;10.85;98.85;102573.50;5011678;28;21053;-42
2022/08/07 02:49:04;;;;;;;10.53;9.57;;;;;;;10.84;99.09;102567.31;5011361;28;20465;-42
2022/08/07 02:51:36;;;;;;;10.83;9.63;;;;;;;10.82;98.98;102565.78;5012600;28;20480;-40
2022/08/07 02:54:18;;;;;;;11.83;10.83;;;;;;;10.81;99.31;102559.63;5015818;28;21036;-40
2022/08/07 02:56:49;;;;;;;9.67;8.87;;;;;;;10.79;99.34;102566.09;5015736;28;20993;-41
2022/08/07 02:59:19;;;;;;;9.93;9.13;;;;;;;10.78;99.49;102561.78;5015872;28;20466;-42
2022/08/07 03:01:55;;;;;;;11.67;10.47;;;;;;;10.77;99.76;102557.41;5016078;28;20519;-41
2022/08/07 03:04:28;;;;;;;10.63;9.60;;;;;;;10.76;99.48;102559.25;5015744;28;20810;-43
2022/08/07 03:06:57;;;;;;;11.63;10.63;;;;;;;10.75;99.80;102557.56;5015629;28;21052;-41
2022/08/07 03:09:30;;;;;;;10.67;9.80;;;;;;;10.74;99.74;102555.91;5015053;28;20464;-43
2022/08/07 03:12:12;;;;;;;11.83;9.83;;;;;;;10.73;99.48;102553.38;5015570;28;20476;-41
2022/08/07 03:14:50;;;;;;;10.50;9.60;;;;;;;10.72;99.66;102554.38;5015678;28;20440;-44
2022/08/07 03:17:19;;;;;;;13.70;10.63;;;;;;;10.72;99.72;102549.03;5015573;28;20456;-42
2022/08/07 03:19:49;;;;;;;11.70;10.80;;;;;;;10.71;99.68;102544.69;5015000;28;20822;-43
2022/08/07 03:22:23;;;;;;;11.20;10.20;;;;;;;10.70;99.50;102546.50;5015281;28;20433;-41
2022/08/07 03:24:58;;;;;;;11.23;10.13;;;;;;;10.69;99.74;102542.19;5015308;28;20456;-41
2022/08/07 03:27:28;;;;;;;11.70;10.43;;;;;;;10.70;99.74;102537.66;5014754;28;20495;-40
2022/08/07 03:29:58;;;;;;;10.80;9.80;;;;;;;10.70;99.86;102541.19;5015271;28;20432;-42
2022/08/07 03:32:31;;;;;;;10.90;9.93;;;;;;;10.69;100.00;102528.00;5014833;28;20682;-44
2022/08/07 03:35:02;;;;;;;10.77;9.83;;;;;;;10.69;100.00;102528.00;5009441;28;20513;-40
2022/08/07 03:37:48;;;;;;;11.90;10.80;;;;;;;10.70;100.00;102533.19;5014479;28;20456;-41
2022/08/07 03:40:22;;;;;;;11.20;10.20;;;;;;;10.71;100.00;102524.19;5014803;28;20794;-43
2022/08/07 03:43:00;;;;;;;12.17;10.90;;;;;;;10.74;100.00;102533.72;5015029;28;20482;-41
2022/08/07 03:45:29;;;;;;;10.63;9.77;;;;;;;10.76;100.00;102526.38;5015123;28;20433;-42
2022/08/07 03:47:59;;;;;;;12.60;11.30;;;;;;;10.80;100.00;102533.94;5014256;28;20492;-43
2022/08/07 03:50:28;;;;;;;13.13;10.10;;;;;;;10.84;100.00;102537.16;5015145;28;20433;-41
2022/08/07 03:52:57;;;;;;;11.63;10.63;;;;;;;10.86;100.00;102541.31;5014271;28;20480;-41
2022/08/07 03:55:26;;;;;;;10.83;10.03;;;;;;;10.88;100.00;102542.00;5014683;28;20429;-40
2022/08/07 03:58:17;;;;;;;10.67;9.70;;;;;;;10.92;100.00;102534.53;5014446;28;20464;-42
2022/08/07 04:01:05;;;;;;;11.60;10.47;;;;;;;10.97;100.00;102534.88;5014735;28;20428;-41
2022/08/07 04:03:37;;;;;;;10.40;9.50;;;;;;;11.06;100.00;102534.81;5013616;28;20938;-42
2022/08/07 04:06:22;;;;;;;10.70;9.80;;;;;;;11.15;100.00;102541.03;5014584;28;20449;-41
2022/08/07 04:09:05;;;;;;;14.53;10.23;;;;;;;11.24;100.00;102548.09;5013661;28;20511;-41
2022/08/07 04:11:43;;;;;;;10.80;9.70;;;;;;;11.32;100.00;102552.69;5014550;28;20429;-41
2022/08/07 04:14:34;;;;;;;11.20;10.10;;;;;;;11.37;100.00;102550.34;5014772;28;20440;-43
2022/08/07 04:17:10;;;;;;;12.20;10.97;;;;;;;11.44;100.00;102546.06;5014479;28;20460;-41
2022/08/07 04:19:48;;;;;;;11.00;10.10;;;;;;;11.48;100.00;102545.59;5014268;28;20544;-43
2022/08/07 04:22:23;;;;;;;10.67;9.77;;;;;;;11.54;100.00;102558.31;5013626;28;20425;-43
2022/08/07 04:24:57;;;;;;;13.90;11.40;;;;;;;11.61;100.00;102556.69;5014414;28;20436;-42
2022/08/07 04:27:25;;;;;;;10.97;10.03;;;;;;;11.71;100.00;102555.75;5014034;28;20899;-41
2022/08/07 04:29:55;;;;;;;12.93;11.73;;;;;;;11.81;100.00;102561.81;5014389;28;21008;-42
2022/08/07 04:32:29;;;;;;;11.20;10.30;;;;;;;11.99;100.00;102566.06;5013817;28;20511;-42
2022/08/07 04:35:03;;;;;;;10.53;9.63;;;;;;;12.19;100.00;102563.94;5008163;28;20458;-41
2022/08/07 04:37:34;;;;;;;12.43;10.53;;;;;;;12.39;100.00;102570.72;5011406;28;20511;-44
2022/08/07 04:40:22;;;;;;;11.97;9.93;;;;;;;12.61;100.00;102562.03;5013851;28;20946;-42
2022/08/07 04:42:57;;;;;;;10.20;9.40;;;;;;;12.78;100.00;102566.38;5013626;28;20433;-42
2022/08/07 04:45:38;;;;;;;12.00;10.90;;;;;;;12.99;100.00;102562.38;5013819;28;20516;-42
2022/08/07 04:48:34;;;;;;;10.00;9.20;;;;;;;13.19;99.65;102564.56;5013157;28;20982;-42
2022/08/07 04:51:07;;;;;;;10.33;9.43;;;;;;;13.40;98.74;102557.84;5013262;28;20429;-42
2022/08/07 04:53:43;;;;;;;13.13;10.13;;;;;;;13.61;97.21;102556.28;5013263;28;20551;-43
2022/08/07 04:56:39;;;;;;;11.40;10.27;;;;;;;14.11;97.00;102560.41;5013944;28;20472;-40
2022/08/07 04:59:33;;;;;;;10.30;9.30;;;;;;;14.79;96.10;102555.13;5013190;28;20533;-41
2022/08/07 05:02:26;;;;;;;12.50;10.80;;;;;;;14.81;88.51;102559.28;5013354;28;20650;-42
2022/08/07 05:05:00;;;;;;;12.57;11.40;;;;;;;14.79;87.41;102558.66;5013206;28;20440;-41
2022/08/07 05:07:40;;;;;;;10.43;9.63;;;;;;;14.77;87.67;102557.16;5012799;28;20823;-41
2022/08/07 05:10:24;;;;;;;11.00;10.10;;;;;;;14.67;86.82;102557.41;4998660;28;20481;-46
2022/08/07 05:12:57;;;;;;;11.70;10.73;;;;;;;14.55;86.86;102560.66;4993024;28;20481;-44
2022/08/07 05:15:50;;;;;;;13.33;11.87;;;;;;;14.43;87.34;102568.28;4986921;28;20427;-43
2022/08/07 05:18:27;;;;;;;11.67;10.67;;;;;;;14.33;87.95;102563.19;4992021;28;20475;-41
2022/08/07 05:21:00;;;;;;;11.60;10.50;;;;;;;14.22;88.18;102570.75;4992715;28;20525;-42
2022/08/07 05:23:35;;;;;;;15.33;12.03;;;;;;;14.10;89.01;102574.81;4992314;28;20434;-41
2022/08/07 05:26:05;;;;;;;14.90;11.70;;;;;;;14.01;89.61;102576.72;4992202;28;20461;-42
2022/08/07 05:28:46;;;;;;;11.00;9.90;;;;;;;13.95;90.37;102584.66;4992201;28;21181;-40
2022/08/07 05:31:20;;;;;;;13.37;12.07;;;;;;;13.90;90.69;102579.78;4992155;28;21126;-44
2022/08/07 05:33:52;;;;;;;10.67;9.80;;;;;;;13.90;91.78;102578.94;4995868;28;20476;-46
2022/08/07 05:36:39;;;;;;;13.43;12.07;;;;;;;13.95;92.72;102579.28;5003631;28;20480;-45
2022/08/07 05:39:08;;;;;;;12.00;10.80;;;;;;;14.00;93.24;102580.44;5011577;28;20453;-47
2022/08/07 05:41:56;;;;;;;15.47;11.60;;;;;;;14.05;93.44;102580.72;5012070;28;20440;-44
2022/08/07 05:44:31;;;;;;;13.77;12.50;;;;;;;14.09;93.59;102584.75;4985295;28;20465;-42
2022/08/07 05:47:00;;;;;;;12.80;11.80;;;;;;;14.14;93.60;102584.22;4991853;28;20466;-43
2022/08/07 05:49:47;;;;;;;12.17;11.27;;;;;;;14.16;93.70;102585.69;4990007;28;20493;-42
2022/08/07 05:52:17;;;;;;;14.13;12.70;;;;;;;14.22;93.75;102587.69;4997509;28;20440;-46
2022/08/07 05:54:47;;;;;;;15.93;12.87;;;;;;;14.25;93.64;102583.81;4991407;28;20484;-43
2022/08/07 05:57:24;;;;;;;13.00;11.80;;;;;;;14.26;93.58;102582.81;4991347;28;20464;-44
2022/08/07 05:59:58;;;;;;;11.97;10.97;;;;;;;14.21;93.07;102585.19;4992069;28;20518;-42
2022/08/07 06:02:28;;;;;;;12.40;11.20;;;;;;;14.17;93.14;102578.50;4991619;28;20434;-42
2022/08/07 06:05:08;;;;;;;12.67;11.60;;;;;;;14.12;93.19;102591.59;4990663;28;20426;-41
2022/08/07 06:07:37;;;;;;;11.80;10.80;;;;;;;14.09;93.46;102586.59;4987423;28;20454;-43
2022/08/07 06:10:26;;;;;;;11.87;10.70;;;;;;;14.02;93.50;102599.00;4992063;28;20434;-47
2022/08/07 06:12:54;;;;;;;11.90;10.80;;;;;;;14.03;94.03;102598.00;4991474;28;20445;-41
2022/08/07 06:15:23;;;;;;;13.77;12.47;;;;;;;14.03;94.60;102598.84;4991175;28;20486;-42
2022/08/07 06:18:12;;;;;;;13.07;11.87;;;;;;;14.07;95.20;102602.84;5000109;28;20453;-42
2022/08/07 06:20:43;;;;;;;12.87;11.67;;;;;;;14.08;95.79;102593.78;5006600;28;20462;-42
2022/08/07 06:23:32;;;;;;;14.93;13.53;;;;;;;14.09;96.27;102586.59;4992128;28;20430;-42
2022/08/07 06:26:21;;;;;;;13.43;12.10;;;;;;;14.12;96.59;102594.28;4989034;28;20473;-42
2022/08/07 06:28:55;;;;;;;14.93;13.53;;;;;;;14.13;96.90;102587.88;4990615;28;20556;-45
2022/08/07 06:31:26;;;;;;;15.90;14.23;;;;;;;14.15;97.32;102591.25;4990781;28;20493;-43
2022/08/07 06:34:13;;;;;;;16.57;14.47;;;;;;;14.13;97.39;102594.09;4997032;28;20480;-43
2022/08/07 06:36:43;;;;;;;17.27;14.67;;;;;;;14.11;97.96;102592.59;5002138;28;20996;-42
2022/08/07 06:39:13;;;;;;;16.80;15.30;;;;;;;14.05;98.91;102599.50;5010030;28;20496;-46
2022/08/07 06:42:05;;;;;;;18.77;16.80;;;;;;;14.03;99.88;102589.97;4986136;28;20449;-45
2022/08/07 06:44:37;;;;;;;17.60;15.67;;;;;;;14.02;100.00;102586.44;4990916;28;20444;-44
2022/08/07 06:47:06;;;;;;;16.93;15.33;;;;;;;14.02;100.00;102602.53;4990997;28;20469;-43
2022/08/07 06:49:42;;;;;;;17.57;15.70;;;;;;;14.05;100.00;102599.50;4991069;28;20466;-43
2022/08/07 06:52:30;;;;;;;17.43;15.60;;;;;;;14.11;100.00;102585.41;4990424;28;20437;-45
2022/08/07 06:55:10;;;;;;;18.37;15.17;;;;;;;14.17;100.00;102586.53;4989960;28;20473;-41
2022/08/07 06:58:02;;;;;;;21.97;14.40;;;;;;;14.23;100.00;102584.00;4989883;28;20496;-48
2022/08/07 07:00:34;;;;;;;17.63;15.90;;;;;;;14.29;100.00;102590.50;4990522;28;20511;-45
2022/08/07 07:03:03;;;;;;;18.40;16.17;;;;;;;14.34;100.00;102594.34;4990176;28;20888;-42
2022/08/07 07:05:38;;;;;;;15.63;13.97;;;;;;;14.43;100.00;102591.63;5004479;28;20421;-45
2022/08/07 07:08:28;;;;;;;13.23;12.00;;;;;;;14.58;100.00;102587.16;4988112;28;20463;-46
2022/08/07 07:10:57;;;;;;;13.53;12.20;;;;;;;14.79;100.00;102590.03;4998211;28;20436;-43
2022/08/07 07:13:34;;;;;;;14.50;13.20;;;;;;;15.02;100.00;102579.28;5010706;28;20445;-42
2022/08/07 07:16:25;;;;;;;14.83;13.17;;;;;;;15.37;100.00;102584.00;5010432;28;20445;-41
2022/08/07 07:19:01;;;;;;;15.20;13.77;;;;;;;15.65;100.00;102576.97;5010209;28;20902;-43
2022/08/07 07:21:51;;;;;;;14.17;12.67;;;;;;;16.61;100.00;102592.91;5007699;28;20541;-42
2022/08/07 07:24:42;;;;;;;13.70;12.30;;;;;;;17.34;100.00;102589.00;4990629;28;20422;-43
2022/08/07 07:27:34;;;;;;;12.90;11.70;;;;;;;17.97;100.00;102582.56;4985219;28;21157;-42
2022/08/07 07:30:27;;;;;;;11.37;10.57;;;;;;;18.27;95.08;102583.09;4991179;28;20438;-45
2022/08/07 07:33:06;;;;;;;12.90;11.80;;;;;;;18.53;90.64;102583.19;4990781;28;20525;-45
2022/08/07 07:35:35;;;;;;;12.20;11.20;;;;;;;19.17;90.65;102580.78;4999969;28;20508;-43
2022/08/07 07:38:24;;;;;;;11.30;10.50;;;;;;;19.69;82.86;102585.28;5011912;28;20468;-42
2022/08/07 07:40:58;;;;;;;11.10;10.30;;;;;;;19.69;80.74;102588.00;5014399;28;20447;-44
2022/08/07 07:43:31;;;;;;;12.83;11.67;;;;;;;19.53;77.04;102585.75;5001425;28;20444;-43
2022/08/07 07:46:21;;;;;;;11.90;10.77;;;;;;;19.29;76.28;102573.69;4990666;28;20879;-44
2022/08/07 07:49:11;;;;;;;14.20;12.90;;;;;;;19.47;79.07;102575.78;4993984;28;20465;-44
2022/08/07 07:52:01;;;;;;;12.13;11.20;;;;;;;19.73;79.06;102581.97;4993765;28;20425;-43
2022/08/07 07:54:31;;;;;;;10.80;9.90;;;;;;;19.71;78.04;102577.81;4985603;28;20476;-42
2022/08/07 07:57:06;;;;;;;11.03;10.13;;;;;;;19.62;76.84;102573.66;4993533;28;20827;-42
2022/08/07 07:59:38;;;;;;;13.17;11.97;;;;;;;19.43;75.32;102569.94;5013930;28;20464;-42
2022/08/07 08:02:20;;;;;;;12.33;11.40;;;;;;;19.39;77.44;102563.28;4998418;28;20457;-42
2022/08/07 08:05:04;;;;;;;12.50;11.40;;;;;;;19.33;77.63;102566.78;4994200;28;20433;-43
2022/08/07 08:07:42;;;;;;;12.53;11.40;;;;;;;19.79;79.12;102564.88;4993890;28;20461;-42
2022/08/07 08:10:30;;;;;;;12.13;11.03;;;;;;;20.17;76.52;102564.06;4994855;28;20441;-42
2022/08/07 08:13:07;;;;;;;12.80;11.60;;;;;;;20.59;75.87;102566.16;4994533;28;20439;-44
2022/08/07 08:15:43;;;;;;;11.10;10.10;;;;;;;21.31;74.69;102560.16;4993932;28;20922;-42
2022/08/07 08:18:27;;;;;;;12.80;11.67;;;;;;;21.83;71.49;102563.38;4995072;28;20843;-44
2022/08/07 08:20:56;;;;;;;10.50;9.50;;;;;;;22.43;71.05;102556.94;4995243;28;20434;-45
2022/08/07 08:29:04;;;;;;;10.50;9.80;;;;;;;22.42;62.69;102549.84;4994619;28;20539;-44
2022/08/07 08:31:38;;;;;;;9.80;9.10;;;;;;;22.32;63.02;102562.31;4995186;28;20473;-45
2022/08/07 08:34:27;;;;;;;10.40;9.60;;;;;;;22.17;61.95;102560.03;5002701;28;20425;-46
2022/08/07 08:36:57;;;;;;;9.40;8.60;;;;;;;22.08;64.65;102552.41;5007496;28;20499;-46
2022/08/07 08:39:27;;;;;;;10.97;10.17;;;;;;;21.98;64.10;102555.69;5013771;28;20830;-45
2022/08/07 08:42:23;;;;;;;10.03;9.27;;;;;;;21.71;64.38;102559.75;5013528;28;20443;-44
2022/08/07 08:45:02;;;;;;;10.37;9.67;;;;;;;21.74;64.68;102562.00;5014151;28;20432;-42
2022/08/07 08:47:40;;;;;;;11.00;10.23;;;;;;;21.78;65.85;102552.34;5013790;28;20546;-47
2022/08/07 08:50:22;;;;;;;10.20;9.50;;;;;;;21.85;65.96;102550.38;5014188;28;20456;-44
2022/08/07 08:53:18;;;;;;;10.73;9.83;;;;;;;22.06;65.44;102544.50;5013784;28;20547;-43
2022/08/07 08:55:50;;;;;;;10.00;9.30;;;;;;;22.58;64.29;102542.91;5013176;28;20526;-48
2022/08/07 08:58:35;;;;;;;10.80;10.10;;;;;;;23.09;62.29;102536.84;5013586;28;20522;-44
2022/08/07 09:01:13;;;;;;;9.10;8.40;;;;;;;23.18;58.67;102538.16;5013951;28;20435;-44
2022/08/07 09:03:55;;;;;;;9.77;9.17;;;;;;;23.31;58.29;102540.66;5013462;28;20436;-45
2022/08/07 09:06:36;;;;;;;9.00;8.50;;;;;;;23.48;54.32;102541.59;5014169;28;20449;-46
2022/08/07 09:09:20;;;;;;;8.87;8.37;;;;;;;24.00;54.15;102533.44;5013249;28;20464;-46
2022/08/07 09:12:11;;;;;;;8.73;7.87;;;;;;;24.53;52.87;102522.19;5012759;28;20436;-44
2022/08/07 09:15:05;;;;;;;7.40;6.80;;;;;;;24.94;52.36;102524.53;5013665;28;20472;-44
2022/08/07 09:18:16;;;;;;;6.23;5.93;;;;;;;24.33;51.35;102522.66;5012856;28;20464;-46
2022/08/07 09:20:59;;;;;;;6.60;6.20;;;;;;;23.90;53.77;102533.22;5013595;28;20488;-43
2022/08/07 09:23:40;;;;;;;7.90;6.90;;;;;;;24.20;50.81;102522.94;5013237;28;20549;-45
2022/08/07 09:26:33;;;;;;;7.60;7.10;;;;;;;24.61;51.08;102530.78;5012757;28;20779;-46
2022/08/07 09:29:09;;;;;;;8.17;7.40;;;;;;;24.61;51.65;102527.25;5012682;28;20460;-45
2022/08/07 09:32:05;;;;;;;7.33;6.63;;;;;;;24.39;51.41;102524.41;5013086;28;20440;-45
2022/08/07 09:34:55;;;;;;;6.97;6.40;;;;;;;24.27;49.62;102523.63;5009619;28;20923;-45
2022/08/07 09:37:30;;;;;;;6.20;5.80;;;;;;;24.29;52.09;102523.38;5009528;28;20452;-46
2022/08/07 09:40:21;;;;;;;6.53;6.13;;;;;;;24.25;51.08;102523.06;5012561;28;20853;-44
2022/08/07 09:42:56;;;;;;;5.80;5.50;;;;;;;24.00;50.30;102528.81;5012678;28;20527;-45
2022/08/07 09:45:37;;;;;;;6.23;5.83;;;;;;;23.96;51.48;102532.25;5012806;28;20428;-46
2022/08/07 09:48:36;;;;;;;6.70;6.20;;;;;;;24.00;51.97;102523.38;5012615;28;20556;-43
2022/08/07 09:51:48;;;;;;;5.97;5.50;;;;;;;24.91;50.72;102516.03;5013152;28;20441;-47
2022/08/07 09:54:41;;;;;;;6.13;5.60;;;;;;;25.20;47.70;102518.41;5012208;28;20443;-45
2022/08/07 09:57:34;;;;;;;7.00;6.40;;;;;;;25.03;47.42;102514.03;5012374;28;20486;-46
2022/08/07 10:00:08;;;;;;;7.10;5.73;;;;;;;25.10;46.69;102518.22;5011883;28;20464;-44
2022/08/07 10:03:16;;;;;;;6.30;5.83;;;;;;;24.91;48.02;102511.38;5012394;28;20444;-45
2022/08/07 10:06:20;;;;;;;6.90;6.30;;;;;;;24.83;47.04;102503.63;4970552;28;20862;-44
2022/08/07 10:09:18;;;;;;;6.23;5.80;;;;;;;24.54;48.29;102512.94;5011496;28;20807;-46
2022/08/07 10:12:15;;;;;;;7.43;6.40;;;;;;;24.47;46.79;102504.91;5012401;28;20440;-48
2022/08/07 10:15:31;;;;;;;6.77;4.87;;;;;;;24.54;47.18;102507.47;5012667;28;21000;-46
2022/08/07 10:18:24;;;;;;;5.40;5.00;;;;;;;24.68;47.80;102501.44;4969956;28;20476;-43
2022/08/07 10:21:09;;;;;;;7.53;5.50;;;;;;;24.91;47.03;102508.66;5012330;28;20437;-44
2022/08/07 10:24:23;;;;;;;4.83;4.53;;;;;;;24.86;48.30;102505.00;5011691;28;20778;-44
2022/08/07 10:27:07;;;;;;;5.30;4.80;;;;;;;24.66;46.13;102498.16;5011816;28;20552;-46
2022/08/07 10:29:52;;;;;;;4.87;4.63;;;;;;;24.40;46.15;102501.50;5011515;28;20552;-44
2022/08/07 10:32:36;;;;;;;5.23;4.83;;;;;;;24.18;43.79;102497.84;5011796;28;20440;-43
2022/08/07 10:35:28;;;;;;;4.53;4.23;;;;;;;24.01;47.16;102496.94;5003673;28;20433;-44
2022/08/07 10:38:35;;;;;;;5.53;5.13;;;;;;;24.30;46.44;102493.16;4972650;28;20477;-47
2022/08/07 10:41:25;;;;;;;5.37;4.90;;;;;;;24.62;43.75;102482.50;4972977;28;20440;-49
2022/08/07 10:44:19;;;;;;;5.80;5.20;;;;;;;23.90;43.74;102489.63;4973007;28;20442;-44
2022/08/07 10:47:18;;;;;;;5.90;5.27;;;;;;;24.02;45.02;102482.22;4972967;28;20917;-47
2022/08/07 10:50:03;;;;;;;5.30;4.90;;;;;;;23.58;43.63;102484.66;4972615;28;20520;-45
2022/08/07 10:52:37;;;;;;;6.07;5.70;;;;;;;24.22;45.07;102485.38;4973009;28;20519;-45
2022/08/07 10:55:17;;;;;;;8.37;5.80;;;;;;;24.86;42.98;102489.47;4972884;28;20529;-47
2022/08/07 10:58:17;;;;;;;5.47;5.17;;;;;;;25.15;41.39;102479.25;4972470;28;20528;-47
2022/08/07 11:01:15;;;;;;;6.87;4.93;;;;;;;25.68;42.90;102465.78;4973063;28;20434;-48
2022/08/07 11:03:49;;;;;;;5.53;5.23;;;;;;;25.60;42.61;102468.13;4971434;28;20434;-44
2022/08/07 11:06:37;;;;;;;5.87;5.47;;;;;;;25.62;40.98;102471.44;4972568;28;20469;-45
2022/08/07 11:09:13;;;;;;;6.03;4.87;;;;;;;25.53;39.63;102470.25;4972208;28;20462;-48
2022/08/07 11:12:04;;;;;;;5.60;5.20;;;;;;;25.27;42.36;102466.31;4972658;28;20936;-42
2022/08/07 11:14:39;;;;;;;4.80;4.50;;;;;;;25.72;40.16;102464.19;4976905;28;20449;-45
2022/08/07 11:17:30;;;;;;;5.30;5.00;;;;;;;26.18;40.44;102451.03;4974914;28;20512;-46
2022/08/07 11:20:18;;;;;;;6.30;4.80;;;;;;;25.81;37.87;102448.16;4976724;28;20434;-47
2022/08/07 11:22:56;;;;;;;5.03;4.73;;;;;;;25.99;40.75;102445.06;4976182;28;20441;-49
2022/08/07 11:25:30;;;;;;;4.90;4.70;;;;;;;26.05;38.18;102443.19;4976373;28;20955;-46
2022/08/07 11:28:09;;;;;;;5.37;4.93;;;;;;;25.31;40.44;102453.81;4975805;28;20982;-44
2022/08/07 11:30:53;;;;;;;4.63;4.30;;;;;;;25.44;39.59;102456.19;4976300;28;20512;-48
2022/08/07 11:33:29;;;;;;;5.40;5.10;;;;;;;25.57;40.26;102444.88;4975615;28;20492;-45
2022/08/07 11:36:37;;;;;;;4.53;4.33;;;;;;;25.54;41.24;102453.56;5006780;28;20476;-49
2022/08/07 11:39:15;;;;;;;4.97;4.67;;;;;;;24.71;40.64;102449.09;5014697;28;20490;-46
2022/08/07 11:41:56;;;;;;;5.10;4.70;;;;;;;23.89;44.40;102447.13;5014959;28;20527;-44
2022/08/07 11:44:39;;;;;;;5.60;5.20;;;;;;;24.22;43.43;102453.47;5014783;28;20439;-45
2022/08/07 11:47:37;;;;;;;5.07;4.57;;;;;;;24.52;43.36;102441.44;5014499;28;20460;-46
2022/08/07 11:50:40;;;;;;;5.87;5.47;;;;;;;23.88;43.69;102450.91;5014540;28;20440;-45
2022/08/07 11:53:36;;;;;;;5.57;5.27;;;;;;;24.03;43.28;102446.56;5014470;28;20439;-45
2022/08/07 11:56:18;;;;;;;5.77;5.37;;;;;;;;;;5014702;28;20476;-46
2022/08/07 11:59:06;;;;;;;5.83;5.43;;;;;;;23.88;44.40;102440.00;5014435;28;20464;-47
2022/08/07 12:02:02;;;;;;;5.10;4.60;;;;;;;24.12;43.35;102439.69;5014539;28;20439;-45
2022/08/07 12:05:02;;;;;;;5.70;5.20;;;;;;;24.72;42.47;102450.78;5014864;28;20441;-44
2022/08/07 12:07:42;;;;;;;5.50;4.97;;;;;;;25.11;43.05;102440.72;5013946;28;20966;-44
2022/08/07 12:10:26;;;;;;;5.97;5.47;;;;;;;24.50;43.64;102441.69;5014639;28;20440;-45
2022/08/07 12:13:02;;;;;;;5.07;4.77;;;;;;;25.09;44.48;102444.78;5014294;28;20436;-43
2022/08/07 12:15:44;;;;;;;5.20;4.90;;;;;;;25.21;42.03;102442.75;5013906;28;20921;-46
2022/08/07 12:18:36;;;;;;;5.60;4.87;;;;;;;25.17;40.54;102439.72;5013826;28;20463;-46
2022/08/07 12:21:26;;;;;;;5.73;5.37;;;;;;;24.90;41.62;102430.59;5014287;28;20432;-44